Time;durP1;ratioP1;P1;durP2;ratioP2;P2;SDS_P1;SDS_P2;PMS_P1;PMS_P2;Temp;Humidity;BMP_temperature;BMP_pressure;BME280_temperature;BME280_humidity;BME280_pressure;Samples;Min_cycle;Max_cycle;Signal;HPM_P1;HPM_P2
2022/03/27 00:00:43;;;;;;;;;43.50;35.25;;;;;17.03;34.97;102164.22;2103199;27;47603;-57
2022/03/27 00:01:44;;;;;;;;;46.60;36.80;;;;;17.02;35.16;102150.81;2099097;28;48200;-57
2022/03/27 00:02:44;;;;;;;;;42.75;36.50;;;;;17.01;35.14;102155.28;2102823;28;47654;-55
2022/03/27 00:03:45;;;;;;;;;47.00;37.75;;;;;17.01;35.22;102152.63;2103668;28;47865;-57
2022/03/27 00:04:47;;;;;;;;;45.80;37.00;;;;;17.00;35.41;102158.91;2095323;28;47910;-56
2022/03/27 00:05:47;;;;;;;;;41.80;35.40;;;;;17.00;35.19;102160.69;2101178;28;47836;-56
2022/03/27 00:06:47;;;;;;;;;40.00;33.50;;;;;16.99;35.73;102159.81;2101835;28;47843;-56
2022/03/27 00:07:48;;;;;;;;;47.00;38.50;;;;;16.99;35.58;102161.63;2103146;27;47412;-56
2022/03/27 00:08:48;;;;;;;;;39.25;35.50;;;;;16.98;35.28;102166.09;2071641;28;47252;-57
2022/03/27 00:09:48;;;;;;;;;43.50;36.50;;;;;16.96;35.22;102154.53;2068245;28;47967;-58
2022/03/27 00:12:08;;;;;;;;;40.00;33.80;;;;;16.97;35.37;102163.47;2094939;28;47501;-58
2022/03/27 00:13:09;;;;;;;;;46.50;36.50;;;;;16.97;35.37;102163.47;2098847;28;47528;-57
2022/03/27 00:14:09;;;;;;;;;49.75;39.75;;;;;16.95;35.64;102162.63;2103498;28;47856;-56
2022/03/27 00:15:10;;;;;;;;;38.25;35.00;;;;;16.94;35.26;102160.88;2102568;28;47995;-57
2022/03/27 00:16:10;;;;;;;;;46.25;37.50;;;;;16.92;35.75;102154.66;2103537;28;47300;-57
2022/03/27 00:17:11;;;;;;;;;38.50;34.00;;;;;16.91;35.18;102153.78;2103480;27;47504;-57
2022/03/27 00:18:11;;;;;;;;;48.00;38.50;;;;;16.91;35.53;102156.47;2103549;28;47554;-54
2022/03/27 00:19:12;;;;;;;;;43.25;35.25;;;;;16.90;35.37;102160.06;2103334;28;47387;-57
2022/03/27 00:20:13;;;;;;;;;44.75;36.00;;;;;16.88;35.41;102151.16;2102724;28;47517;-58
2022/03/27 00:21:14;;;;;;;;;43.25;36.00;;;;;16.89;35.42;102160.09;2076851;28;48150;-54
2022/03/27 00:22:15;;;;;;;;;44.40;35.00;;;;;16.88;35.54;102155.66;2078137;28;47576;-58
2022/03/27 00:23:16;;;;;;;;;46.75;38.00;;;;;16.87;35.52;102160.13;2104880;27;47623;-56
2022/03/27 00:24:17;;;;;;;;;36.00;31.75;;;;;16.85;35.54;102159.28;2105105;28;48019;-57
2022/03/27 00:25:17;;;;;;;;;45.75;37.50;;;;;16.83;35.77;102154.88;2105036;28;48570;-56
2022/03/27 00:26:17;;;;;;;;;45.50;36.75;;;;;16.83;35.91;102152.22;2086794;28;47653;-57
2022/03/27 00:27:18;;;;;;;;;47.75;39.25;;;;;16.82;35.96;102161.19;2087052;28;47413;-57
2022/03/27 00:28:18;;;;;;;;;43.25;36.75;;;;;16.79;35.94;102156.78;2104507;28;47426;-57
2022/03/27 00:29:21;;;;;;;;;43.00;33.75;;;;;16.77;35.55;102163.97;2104795;28;48032;-55
2022/03/27 00:30:22;;;;;;;;;42.20;34.40;;;;;16.77;35.98;102156.81;2104187;28;48177;-58
2022/03/27 00:31:22;;;;;;;;;38.00;34.50;;;;;16.77;35.91;102167.53;2105064;28;47630;-58
2022/03/27 00:32:23;;;;;;;;;39.50;33.50;;;;;16.76;35.76;102157.69;2104147;28;47471;-55
2022/03/27 00:33:24;;;;;;;;;45.40;39.00;;;;;16.77;36.06;102153.25;2105026;28;47488;-57
2022/03/27 00:34:25;;;;;;;;;42.00;36.00;;;;;16.76;35.71;102156.81;2104881;28;47158;-58
2022/03/27 00:35:25;;;;;;;;;47.60;39.60;;;;;16.76;36.23;102167.56;2104389;28;47928;-57
2022/03/27 00:36:26;;;;;;;;;44.50;35.00;;;;;16.74;36.16;102158.66;2103921;27;47805;-57
2022/03/27 00:37:27;;;;;;;;;45.25;36.25;;;;;16.74;35.75;102164.03;2093875;28;47643;-56
2022/03/27 00:38:27;;;;;;;;;45.25;37.25;;;;;16.72;35.62;102158.72;2095041;28;47768;-55
2022/03/27 00:39:28;;;;;;;;;43.75;37.50;;;;;16.72;35.81;102160.50;2096482;28;47671;-58
2022/03/27 00:40:28;;;;;;;;;43.75;37.75;;;;;16.71;35.80;102158.75;2101263;28;47474;-55
2022/03/27 00:41:30;;;;;;;;;44.25;37.00;;;;;16.69;35.83;102156.09;2103904;28;47545;-55
2022/03/27 00:42:30;;;;;;;;;43.60;35.80;;;;;16.69;36.26;102158.78;2104880;28;47534;-54
2022/03/27 00:43:31;;;;;;;;;45.50;37.25;;;;;16.67;35.78;102155.28;2104729;28;47724;-57
2022/03/27 00:44:32;;;;;;;;;47.00;38.20;;;;;16.67;36.37;102157.03;2103893;28;48105;-58
2022/03/27 00:45:32;;;;;;;;;46.75;38.50;;;;;16.66;35.99;102152.59;2095776;28;47693;-58
2022/03/27 00:46:33;;;;;;;;;50.50;38.00;;;;;16.64;36.45;102163.34;2095630;28;47654;-58
2022/03/27 00:47:33;;;;;;;;;46.75;37.25;;;;;16.64;35.78;102160.69;2104933;28;47599;-58
2022/03/27 00:48:34;;;;;;;;;45.50;37.25;;;;;16.63;36.13;102153.53;2104055;28;47517;-57
2022/03/27 00:49:35;;;;;;;;;40.80;35.20;;;;;16.63;36.41;102156.19;2103747;28;47799;-57
2022/03/27 00:50:35;;;;;;;;;46.25;36.50;;;;;16.63;36.22;102163.38;2086455;28;48237;-55
2022/03/27 00:51:36;;;;;;;;;46.00;37.75;;;;;16.62;36.23;102149.09;2086523;28;48073;-57
2022/03/27 00:52:36;;;;;;;;;43.25;35.25;;;;;16.63;36.54;102158.88;2104515;28;47601;-58
2022/03/27 00:53:36;;;;;;;;;44.25;36.75;;;;;16.61;36.38;102155.38;2104376;28;47990;-56
2022/03/27 00:54:37;;;;;;;;;44.75;37.75;;;;;16.59;36.13;102156.31;2104135;28;47489;-56
2022/03/27 00:55:38;;;;;;;;;43.00;37.00;;;;;16.59;36.22;102157.22;2104731;28;47981;-56
2022/03/27 00:56:38;;;;;;;;;36.00;31.00;;;;;16.58;36.12;102151.88;2104549;28;47998;-57
2022/03/27 00:57:38;;;;;;;;;43.75;35.75;;;;;16.56;36.57;102153.72;2104828;27;47447;-56
2022/03/27 00:58:39;;;;;;;;;43.00;36.00;;;;;16.55;36.55;102155.53;2104768;28;47576;-56
2022/03/27 00:59:39;;;;;;;;;46.25;38.25;;;;;16.54;36.63;102152.88;2104643;28;47398;-56
2022/03/27 01:00:46;;;;;;;;;46.00;37.25;;;;;16.53;36.65;102152.00;2104564;28;47972;-58
2022/03/27 01:01:46;;;;;;;;;46.40;39.00;;;;;16.52;36.26;102149.38;2097822;28;47890;-56
2022/03/27 01:02:47;;;;;;;;;46.50;38.75;;;;;16.51;36.22;102144.91;2100404;28;48173;-57
2022/03/27 01:03:48;;;;;;;;;48.00;38.00;;;;;16.50;36.56;102152.06;2096631;28;47797;-56
2022/03/27 01:04:54;;;;;;;;;45.60;36.80;;;;;16.49;36.69;102153.84;2102607;28;47590;-57
2022/03/27 01:05:58;;;;;;;;;46.80;38.60;;;;;16.47;36.69;102146.78;2104492;28;47759;-57
2022/03/27 01:06:59;;;;;;;;;45.60;37.80;;;;;16.47;37.00;102150.34;2104088;28;47824;-56
2022/03/27 01:08:05;;;;;;;;;32.00;29.00;;;;;16.47;36.90;102154.81;2104620;28;47247;-58
2022/03/27 01:10:28;;;;;;;;;39.00;35.00;;;;;16.45;36.62;102149.50;2104735;28;47595;-56
2022/03/27 01:11:28;;;;;;;;;47.20;37.20;;;;;16.45;36.46;102148.63;2097288;28;48377;-57
2022/03/27 01:12:38;;;;;;;;;42.25;33.50;;;;;16.44;36.54;102144.19;2104984;28;47655;-57
2022/03/27 01:13:43;;;;;;;;;49.60;38.60;;;;;16.43;36.72;102150.44;2096750;28;46566;-56
2022/03/27 01:14:46;;;;;;;;;47.20;39.00;;;;;16.42;36.66;102141.53;2096391;28;48117;-57
2022/03/27 01:15:50;;;;;;;;;41.80;35.40;;;;;16.41;37.01;102142.44;2099839;28;48029;-58
2022/03/27 01:17:01;;;;;;;;;47.40;40.00;;;;;16.41;36.96;102144.25;2104726;28;47968;-57
2022/03/27 01:18:01;;;;;;;;;45.80;38.20;;;;;16.38;36.70;102153.22;2104474;28;47806;-57
2022/03/27 01:19:04;;;;;;;;;45.25;36.25;;;;;16.38;37.02;102139.81;2104617;28;47469;-57
2022/03/27 01:20:04;;;;;;;;;46.40;38.20;;;;;16.38;36.83;102147.84;2104204;28;47315;-58
2022/03/27 01:21:07;;;;;;;;;46.25;38.75;;;;;16.37;37.15;102151.47;2103819;28;47621;-56
2022/03/27 01:22:09;;;;;;;;;46.20;37.40;;;;;16.35;37.24;102145.25;2104290;28;47599;-57
2022/03/27 01:23:11;;;;;;;;;47.20;39.00;;;;;16.36;37.19;102151.50;2103860;28;45428;-57
2022/03/27 01:24:13;;;;;;;;;44.60;37.00;;;;;16.35;36.84;102147.94;2104599;27;47477;-56
2022/03/27 01:25:14;;;;;;;;;39.20;33.00;;;;;16.34;37.12;102145.28;2104554;27;48058;-56
2022/03/27 01:26:14;;;;;;;;;48.25;38.00;;;;;16.34;36.74;102139.94;2104643;28;47932;-57
2022/03/27 01:27:15;;;;;;;;;43.50;36.50;;;;;16.33;37.27;102146.22;2104668;28;47395;-55
2022/03/27 01:28:15;;;;;;;;;35.50;30.75;;;;;16.33;37.33;102140.84;2103747;28;47101;-57
2022/03/27 01:29:17;;;;;;;;;45.75;39.50;;;;;16.32;37.42;102144.47;2104462;28;47482;-56
2022/03/27 01:30:17;;;;;;;;;38.20;32.40;;;;;16.31;36.73;102140.03;2103769;28;47837;-57
2022/03/27 01:31:19;;;;;;;;;47.75;40.00;;;;;16.31;36.78;102131.97;2085938;28;48010;-55
2022/03/27 01:32:19;;;;;;;;;46.00;37.00;;;;;16.30;36.99;102135.56;2089918;28;47647;-56
2022/03/27 01:33:20;;;;;;;;;38.00;34.25;;;;;16.29;36.92;102132.03;2095416;28;47610;-56
2022/03/27 01:34:20;;;;;;;;;47.50;38.00;;;;;16.28;37.43;102132.94;2103251;28;47884;-58
2022/03/27 01:35:22;;;;;;;;;48.00;40.00;;;;;16.27;37.32;102135.66;2104170;28;47588;-58
2022/03/27 01:36:25;;;;;;;;;48.40;38.00;;;;;16.26;37.32;102134.78;2104374;28;47999;-56
2022/03/27 01:37:25;;;;;;;;;45.40;38.80;;;;;16.25;37.50;102127.63;2074838;28;47806;-57
2022/03/27 01:38:27;;;;;;;;;44.00;36.75;;;;;16.26;37.00;102134.78;2078152;28;47774;-57
2022/03/27 01:39:27;;;;;;;;;44.80;37.00;;;;;16.24;37.17;102131.22;2099125;28;48088;-57
2022/03/27 01:40:28;;;;;;;;;48.25;38.25;;;;;16.24;37.14;102131.22;2099304;28;47086;-56
2022/03/27 01:41:28;;;;;;;;;41.00;34.00;;;;;16.23;37.46;102125.91;2104688;27;47956;-56
2022/03/27 01:42:29;;;;;;;;;45.50;38.50;;;;;16.22;37.01;102122.34;2101795;28;47693;-56
2022/03/27 01:43:29;;;;;;;;;42.50;35.75;;;;;16.20;37.06;102126.84;2101370;28;48260;-57
2022/03/27 01:44:30;;;;;;;;;44.25;37.00;;;;;16.20;37.52;102124.19;2098712;28;47355;-57
2022/03/27 01:45:31;;;;;;;;;48.25;39.00;;;;;16.19;37.72;102123.31;2098110;28;48478;-55
2022/03/27 01:46:35;;;;;;;;;48.20;38.80;;;;;16.19;37.13;102119.75;2100194;28;47628;-57
2022/03/27 01:47:36;;;;;;;;;47.40;39.20;;;;;16.18;37.17;102120.66;2104498;28;47842;-54
2022/03/27 01:48:37;;;;;;;;;49.00;40.40;;;;;16.18;37.75;102110.84;2104258;28;47898;-56
2022/03/27 01:49:40;;;;;;;;;49.25;39.50;;;;;16.17;37.30;102114.44;2086316;28;47811;-58
2022/03/27 01:50:41;;;;;;;;;47.20;38.40;;;;;16.15;37.70;102113.59;2083509;28;47769;-55
2022/03/27 01:51:42;;;;;;;;;48.75;40.25;;;;;16.14;37.39;102111.81;2077823;28;48177;-56
2022/03/27 01:52:43;;;;;;;;;48.20;40.40;;;;;16.13;37.64;102117.19;2078406;28;47895;-56
2022/03/27 01:53:43;;;;;;;;;43.50;35.50;;;;;16.13;38.00;102114.50;2104373;28;47505;-55
2022/03/27 01:54:44;;;;;;;;;43.00;37.00;;;;;16.11;37.55;102114.53;2104489;28;47702;-57
2022/03/27 01:55:44;;;;;;;;;51.00;40.00;;;;;16.11;37.38;102114.53;2104348;28;47734;-56
2022/03/27 01:56:45;;;;;;;;;44.75;37.25;;;;;16.11;37.63;102113.66;2104217;28;47377;-55
2022/03/27 01:57:45;;;;;;;;;41.25;35.25;;;;;16.09;37.46;102110.16;2098855;28;47440;-57
2022/03/27 01:58:46;;;;;;;;;45.50;39.00;;;;;16.07;37.60;102107.50;2104324;28;47408;-58
2022/03/27 01:59:47;;;;;;;;;48.25;39.50;;;;;16.08;37.51;102106.59;2104490;28;47665;-58
2022/03/27 02:00:48;;;;;;;;;39.25;34.75;;;;;16.07;37.99;102102.16;2103047;28;47562;-57
2022/03/27 02:01:49;;;;;;;;;47.25;38.75;;;;;16.07;37.90;102103.94;2102541;28;47523;-55
2022/03/27 02:02:49;;;;;;;;;47.00;38.25;;;;;16.04;37.44;102104.91;2104467;28;47307;-57
2022/03/27 02:03:50;;;;;;;;;48.00;38.75;;;;;16.04;37.99;102104.03;2104449;28;47530;-56
2022/03/27 02:04:51;;;;;;;;;39.50;34.00;;;;;16.02;38.13;102101.38;2104464;28;47816;-57
2022/03/27 02:05:52;;;;;;;;;47.00;38.80;;;;;16.02;37.91;102106.75;2102072;28;48083;-58
2022/03/27 02:06:52;;;;;;;;;48.75;40.00;;;;;16.00;37.84;102100.50;2103012;28;47968;-57
2022/03/27 02:07:53;;;;;;;;;47.25;38.75;;;;;16.00;38.07;102104.97;2104297;28;46386;-58
2022/03/27 02:08:53;;;;;;;;;43.00;35.25;;;;;15.99;38.15;102100.56;2104401;28;47993;-57
2022/03/27 02:09:54;;;;;;;;;49.50;40.75;;;;;15.97;37.77;102108.63;2104281;28;47600;-57
2022/03/27 02:10:54;;;;;;;;;47.25;38.75;;;;;15.95;38.28;102107.78;2104133;28;47698;-56
2022/03/27 02:11:54;;;;;;;;;48.75;40.75;;;;;15.94;38.43;102102.47;2100365;28;48308;-57
2022/03/27 02:12:55;;;;;;;;;44.75;37.00;;;;;15.92;38.35;102105.19;2097670;28;47365;-59
2022/03/27 02:13:56;;;;;;;;;47.50;39.00;;;;;15.89;38.27;102103.44;2095852;28;47820;-56
2022/03/27 02:14:56;;;;;;;;;50.75;41.25;;;;;15.90;38.04;102098.97;2096477;28;48143;-56
2022/03/27 02:15:58;;;;;;;;;47.00;38.50;;;;;15.89;38.22;102103.44;2098189;28;47407;-56
2022/03/27 02:16:58;;;;;;;;;43.80;36.20;;;;;15.88;38.39;102095.47;2104231;28;48097;-56
2022/03/27 02:18:01;;;;;;;;;46.00;37.75;;;;;15.86;38.17;102100.81;2104175;28;47533;-56
2022/03/27 02:19:06;;;;;;;;;49.00;40.80;;;;;15.86;38.34;102102.59;2103137;28;48051;-58
2022/03/27 02:20:07;;;;;;;;;49.80;40.80;;;;;15.86;38.09;102103.50;2103751;27;48037;-56
2022/03/27 02:21:09;;;;;;;;;49.80;40.80;;;;;15.84;38.64;102099.97;2102581;28;47666;-56
2022/03/27 02:22:09;;;;;;;;;44.80;38.00;;;;;15.84;38.59;102101.78;2103552;28;48643;-56
2022/03/27 02:23:10;;;;;;;;;48.00;37.25;;;;;15.83;38.31;102095.53;2103979;28;47500;-54
2022/03/27 02:24:11;;;;;;;;;47.00;39.40;;;;;15.83;38.66;102097.34;2103850;28;47662;-56
2022/03/27 02:25:11;;;;;;;;;47.00;38.00;;;;;15.82;38.42;102101.81;2085761;28;47703;-57
2022/03/27 02:26:12;;;;;;;;;47.75;40.75;;;;;15.81;38.17;102101.84;2085201;28;47558;-56
2022/03/27 02:27:12;;;;;;;;;43.00;37.00;;;;;15.79;38.60;102096.53;2103646;28;47557;-57
2022/03/27 02:28:13;;;;;;;;;48.50;37.75;;;;;15.79;38.59;102101.88;2103738;28;47809;-55
2022/03/27 02:29:15;;;;;;;;;45.75;39.00;;;;;15.78;38.78;102096.56;2085810;28;47628;-57
2022/03/27 02:30:15;;;;;;;;;45.20;36.00;;;;;15.78;38.82;102100.13;2079550;28;47927;-58
2022/03/27 02:31:16;;;;;;;;;46.25;38.75;;;;;15.77;38.84;102100.16;2101957;28;47948;-56
2022/03/27 02:32:17;;;;;;;;;45.20;37.60;;;;;15.76;38.41;102098.41;2096078;28;47536;-58
2022/03/27 02:33:17;;;;;;;;;42.50;36.00;;;;;15.73;38.80;102102.00;2095766;28;47321;-56
2022/03/27 02:34:18;;;;;;;;;43.50;35.50;;;;;15.73;38.76;102103.78;2103705;28;47788;-56
2022/03/27 02:35:18;;;;;;;;;49.25;40.50;;;;;15.72;38.94;102110.06;2104107;28;47612;-57
2022/03/27 02:36:19;;;;;;;;;42.00;34.75;;;;;15.71;38.89;102108.28;2103447;28;47697;-57
2022/03/27 02:37:19;;;;;;;;;47.25;39.25;;;;;15.70;38.95;102101.19;2104095;28;47694;-56
2022/03/27 02:38:20;;;;;;;;;46.75;38.75;;;;;15.69;39.04;102107.44;2102795;28;47737;-58
2022/03/27 02:39:20;;;;;;;;;48.75;39.00;;;;;15.68;39.03;102101.22;2095939;28;47810;-56
2022/03/27 02:40:20;;;;;;;;;45.25;36.75;;;;;15.68;38.97;102114.59;2095785;28;48045;-58
2022/03/27 02:41:21;;;;;;;;;47.50;38.25;;;;;15.66;38.88;102105.72;2103142;28;47427;-58
2022/03/27 02:42:22;;;;;;;;;45.50;36.50;;;;;15.65;38.63;102108.44;2104072;27;47758;-55
2022/03/27 02:43:22;;;;;;;;;42.00;37.00;;;;;15.64;39.16;102107.56;2103905;28;45819;-56
2022/03/27 02:44:23;;;;;;;;;49.50;39.00;;;;;15.63;39.10;102102.25;2103821;28;47882;-57
2022/03/27 02:45:23;;;;;;;;;48.00;40.75;;;;;15.64;38.99;102104.88;2091507;28;47478;-55
2022/03/27 02:46:23;;;;;;;;;48.50;40.25;;;;;15.64;39.29;102109.34;2090018;28;47580;-57
2022/03/27 02:47:24;;;;;;;;;44.25;37.50;;;;;15.63;38.95;102107.59;2103629;28;47583;-57
2022/03/27 02:48:25;;;;;;;;;51.00;39.25;;;;;15.63;38.88;102112.94;2080327;28;47567;-57
2022/03/27 02:49:26;;;;;;;;;46.80;38.60;;;;;15.61;39.05;102104.91;2085951;28;47715;-57
2022/03/27 02:50:28;;;;;;;;;47.00;37.75;;;;;15.61;39.08;102112.94;2097408;28;47479;-57
2022/03/27 02:51:29;;;;;;;;;47.40;38.60;;;;;15.60;39.33;102105.84;2098221;28;47717;-56
2022/03/27 02:52:29;;;;;;;;;44.75;37.75;;;;;15.61;39.00;102104.91;2103783;28;47649;-57
2022/03/27 02:53:30;;;;;;;;;49.75;39.75;;;;;15.60;38.93;102104.03;2103031;28;47154;-57
2022/03/27 02:54:30;;;;;;;;;46.50;38.00;;;;;15.59;39.06;102101.38;2103815;28;47307;-57
2022/03/27 02:55:30;;;;;;;;;38.25;32.50;;;;;15.58;39.04;102108.50;2104070;28;47175;-58
2022/03/27 02:56:32;;;;;;;;;45.75;37.50;;;;;15.57;39.09;102106.75;2094155;28;46456;-56
2022/03/27 02:57:32;;;;;;;;;43.60;36.20;;;;;15.58;39.50;102107.63;2094334;28;47532;-57
2022/03/27 02:58:33;;;;;;;;;40.00;33.25;;;;;15.57;39.66;102106.75;2094373;28;47672;-56
2022/03/27 02:59:33;;;;;;;;;45.75;35.75;;;;;15.57;39.06;102104.06;2094572;28;47740;-56
2022/03/27 03:00:34;;;;;;;;;45.50;38.00;;;;;15.59;39.46;102104.03;2094196;28;47579;-54
2022/03/27 03:01:35;;;;;;;;;45.75;37.50;;;;;15.58;39.18;102103.16;2094468;28;48037;-55
2022/03/27 03:02:35;;;;;;;;;45.50;38.25;;;;;15.59;39.30;102101.38;2094559;28;47951;-56
2022/03/27 03:03:36;;;;;;;;;46.50;37.25;;;;;15.60;39.33;102106.72;2094439;28;47848;-56
2022/03/27 03:04:37;;;;;;;;;42.50;36.75;;;;;15.62;39.58;102103.13;2094610;28;47431;-55
2022/03/27 03:05:38;;;;;;;;;40.75;34.50;;;;;15.62;39.04;102100.44;2093554;28;47928;-56
2022/03/27 03:06:41;;;;;;;;;42.00;35.60;;;;;15.62;39.45;102098.66;2086057;28;47933;-54
2022/03/27 03:07:42;;;;;;;;;46.60;36.00;;;;;15.61;39.51;102099.56;2089476;28;48384;-58
2022/03/27 03:08:42;;;;;;;;;47.60;38.40;;;;;15.60;39.56;102105.84;2079512;28;47730;-56
2022/03/27 03:09:44;;;;;;;;;49.25;40.00;;;;;15.60;39.73;102098.69;2084378;28;47881;-56
2022/03/27 03:10:45;;;;;;;;;44.60;38.60;;;;;15.61;39.65;102104.91;2094454;28;47574;-56
2022/03/27 03:11:45;;;;;;;;;41.40;35.60;;;;;15.60;39.34;102098.69;2091441;28;47601;-56
2022/03/27 03:12:46;;;;;;;;;45.75;37.50;;;;;15.62;39.52;102103.13;2091111;28;47754;-55
2022/03/27 03:13:49;;;;;;;;;49.75;40.00;;;;;15.61;39.25;102104.91;2070119;28;47519;-57
2022/03/27 03:14:55;;;;;;;;;48.60;37.00;;;;;15.60;39.10;102104.03;2070435;28;47511;-56
2022/03/27 03:15:55;;;;;;;;;43.60;37.40;;;;;15.62;39.19;102105.81;2077014;28;48117;-56
2022/03/27 03:16:56;;;;;;;;;42.00;34.75;;;;;15.61;39.49;102104.91;2077380;28;48201;-57
2022/03/27 03:17:57;;;;;;;;;47.40;38.80;;;;;15.59;39.28;102102.28;2094359;28;46939;-59
2022/03/27 03:18:58;;;;;;;;;47.00;39.50;;;;;15.60;39.08;102105.84;2094449;28;47862;-58
2022/03/27 03:19:59;;;;;;;;;38.75;32.75;;;;;15.59;39.48;102101.38;2087832;28;48238;-59
2022/03/27 03:21:00;;;;;;;;;42.20;35.60;;;;;15.59;39.65;102104.97;2093202;28;47764;-57
2022/03/27 03:22:00;;;;;;;;;42.80;35.80;;;;;15.57;39.73;102105.88;2077369;28;47759;-57
2022/03/27 03:23:01;;;;;;;;;37.50;32.75;;;;;15.57;39.29;102111.22;2076968;28;46916;-57
2022/03/27 03:24:01;;;;;;;;;42.00;36.00;;;;;15.55;39.60;102105.03;2094484;28;47909;-57
2022/03/27 03:25:02;;;;;;;;;45.75;36.25;;;;;15.56;39.47;102102.31;2069225;28;46469;-56
2022/03/27 03:26:04;;;;;;;;;47.00;37.75;;;;;15.55;39.77;102103.22;2069126;28;47926;-57
2022/03/27 03:27:05;;;;;;;;;45.00;38.00;;;;;15.54;39.72;102101.47;2077579;28;47697;-57
2022/03/27 03:28:05;;;;;;;;;44.25;35.25;;;;;15.54;39.80;102105.94;2080634;28;47377;-57
2022/03/27 03:29:06;;;;;;;;;42.25;35.25;;;;;15.53;39.78;102105.06;2085886;28;47506;-56
2022/03/27 03:30:07;;;;;;;;;47.75;37.00;;;;;15.52;39.36;102108.66;2085843;28;46836;-57
2022/03/27 03:31:08;;;;;;;;;45.80;36.60;;;;;15.53;39.80;102101.50;2085794;28;48017;-58
2022/03/27 03:32:08;;;;;;;;;40.50;34.25;;;;;15.52;39.46;102114.00;2085992;28;48178;-55
2022/03/27 03:33:09;;;;;;;;;46.25;38.50;;;;;15.52;39.78;102108.66;2085889;28;47812;-56
2022/03/27 03:34:09;;;;;;;;;40.50;34.00;;;;;15.52;39.58;102103.31;2086075;28;47728;-57
2022/03/27 03:35:10;;;;;;;;;41.00;35.25;;;;;15.53;39.64;102112.22;2085673;28;48003;-55
2022/03/27 03:36:11;;;;;;;;;42.60;35.40;;;;;15.53;39.58;102104.19;2085695;28;47541;-56
2022/03/27 03:37:11;;;;;;;;;39.50;34.25;;;;;15.51;39.66;102112.25;2086047;28;47921;-56
2022/03/27 03:38:12;;;;;;;;;46.00;36.25;;;;;15.50;39.96;102110.47;2085969;28;48182;-57
2022/03/27 03:39:12;;;;;;;;;44.50;37.25;;;;;15.50;39.80;102104.22;2085687;28;47363;-58
2022/03/27 03:40:14;;;;;;;;;39.00;33.00;;;;;15.50;39.92;102105.13;2085917;28;47073;-57
2022/03/27 03:41:15;;;;;;;;;44.80;37.40;;;;;15.49;39.98;102105.13;2089608;28;47715;-56
2022/03/27 03:42:15;;;;;;;;;42.75;36.75;;;;;15.47;39.71;102105.16;2086144;28;47765;-57
2022/03/27 03:43:19;;;;;;;;;39.00;34.50;;;;;15.47;39.89;102107.84;2085902;28;47531;-57
2022/03/27 03:44:19;;;;;;;;;39.20;34.00;;;;;15.47;40.11;102101.59;2085731;28;48168;-56
2022/03/27 03:45:20;;;;;;;;;37.00;32.00;;;;;15.46;40.11;102106.09;2086232;28;46735;-56
2022/03/27 03:46:20;;;;;;;;;42.25;37.00;;;;;15.46;40.00;102108.75;2085022;28;47748;-56
2022/03/27 03:47:21;;;;;;;;;40.75;34.50;;;;;15.46;39.97;102103.41;2077809;28;47472;-56
2022/03/27 03:48:21;;;;;;;;;41.00;34.75;;;;;15.45;39.94;102107.00;2069443;28;48320;-57
2022/03/27 03:49:23;;;;;;;;;36.00;32.50;;;;;15.47;39.80;102101.59;2080828;28;47482;-56
2022/03/27 03:50:24;;;;;;;;;41.20;35.60;;;;;15.45;39.78;102109.66;2085847;28;48118;-57
2022/03/27 03:51:24;;;;;;;;;38.75;32.25;;;;;15.45;40.12;102106.13;2080974;28;47526;-56
2022/03/27 03:52:25;;;;;;;;;35.75;33.00;;;;;15.44;40.18;102109.72;2085820;28;47407;-56
2022/03/27 03:53:27;;;;;;;;;38.20;33.80;;;;;15.43;40.09;102106.16;2085695;28;48156;-56
2022/03/27 03:54:27;;;;;;;;;42.40;34.80;;;;;15.42;39.87;102112.41;2083902;28;48214;-59
2022/03/27 03:55:28;;;;;;;;;43.50;35.75;;;;;15.42;40.09;102111.53;2081022;28;47823;-59
2022/03/27 03:56:29;;;;;;;;;35.40;32.20;;;;;15.40;40.23;102108.00;2085552;28;47603;-58
2022/03/27 03:57:30;;;;;;;;;44.50;34.50;;;;;15.39;39.94;102116.94;2103535;28;47761;-58
2022/03/27 03:58:30;;;;;;;;;40.00;34.25;;;;;15.38;40.50;102113.41;2103604;28;47366;-58
2022/03/27 03:59:33;;;;;;;;;38.00;34.00;;;;;15.36;40.13;102120.53;2103194;28;48066;-58
2022/03/27 04:00:33;;;;;;;;;44.00;37.40;;;;;15.35;40.31;102116.09;2083088;28;47841;-58
2022/03/27 04:01:34;;;;;;;;;39.00;34.25;;;;;15.35;40.31;102109.88;2077314;28;47365;-57
2022/03/27 04:02:35;;;;;;;;;37.60;31.80;;;;;15.32;40.02;102114.38;2103378;28;47590;-57
2022/03/27 04:03:35;;;;;;;;;42.75;36.25;;;;;15.31;40.24;102109.94;2103534;28;47727;-58
2022/03/27 04:04:36;;;;;;;;;38.50;32.25;;;;;15.31;40.40;102114.41;2103189;27;47970;-58
2022/03/27 04:05:37;;;;;;;;;42.00;35.25;;;;;15.29;40.17;102111.78;2103481;28;47281;-57
2022/03/27 04:06:37;;;;;;;;;42.25;34.50;;;;;15.27;40.40;102112.72;2102565;28;47712;-56
2022/03/27 04:07:37;;;;;;;;;42.25;35.00;;;;;15.25;40.38;102109.19;2099802;28;47340;-57
2022/03/27 04:08:38;;;;;;;;;34.00;32.00;;;;;15.24;40.54;102110.06;2094907;28;47639;-59
2022/03/27 04:09:38;;;;;;;;;37.25;33.25;;;;;15.22;40.62;102110.09;2094929;28;47600;-54
2022/03/27 04:10:39;;;;;;;;;38.50;33.25;;;;;15.22;40.50;102117.25;2094950;28;47652;-56
2022/03/27 04:11:39;;;;;;;;;39.75;34.00;;;;;15.20;40.28;102108.38;2095196;28;47568;-56
2022/03/27 04:12:40;;;;;;;;;36.75;32.50;;;;;15.20;40.54;102111.06;2099995;28;47664;-60
2022/03/27 04:13:40;;;;;;;;;38.50;31.25;;;;;15.19;40.92;102110.16;2102520;28;47676;-57
2022/03/27 04:14:41;;;;;;;;;42.50;36.50;;;;;15.18;40.33;102104.84;2103245;28;47904;-57
2022/03/27 04:15:41;;;;;;;;;38.50;32.75;;;;;15.17;40.35;102113.78;2103666;28;47902;-59
2022/03/27 04:16:42;;;;;;;;;36.25;32.25;;;;;15.17;40.51;102108.44;2103351;28;46714;-58
2022/03/27 04:17:48;;;;;;;;;39.40;34.20;;;;;15.16;40.59;102118.25;2102660;28;47943;-58
2022/03/27 04:18:48;;;;;;;;;37.60;32.60;;;;;15.14;40.59;102114.75;2103392;28;47680;-59
2022/03/27 04:19:49;;;;;;;;;42.75;36.00;;;;;15.14;40.72;102111.19;2103570;28;47513;-56
2022/03/27 04:20:50;;;;;;;;;42.25;35.25;;;;;15.11;40.57;102112.09;2103696;28;48079;-55
2022/03/27 04:21:50;;;;;;;;;40.50;32.50;;;;;15.11;40.50;102117.44;2103091;28;47960;-55
2022/03/27 04:22:50;;;;;;;;;39.00;35.25;;;;;15.10;40.59;102114.78;2103653;28;47349;-57
2022/03/27 04:23:51;;;;;;;;;35.75;32.25;;;;;15.11;40.69;102119.22;2100658;28;47998;-58
2022/03/27 04:24:51;;;;;;;;;41.00;35.50;;;;;15.10;40.75;102118.34;2095179;28;46074;-57
2022/03/27 04:25:52;;;;;;;;;37.75;33.75;;;;;15.10;40.86;102112.13;2102790;28;47383;-57
2022/03/27 04:26:52;;;;;;;;;36.25;30.75;;;;;15.09;40.84;102113.91;2103473;28;47791;-56
2022/03/27 04:27:53;;;;;;;;;36.00;31.00;;;;;15.10;40.70;102114.78;2103607;28;47312;-59
2022/03/27 04:28:53;;;;;;;;;39.25;33.75;;;;;15.09;40.63;102113.03;2103529;28;47516;-57
2022/03/27 04:29:53;;;;;;;;;35.25;30.00;;;;;15.09;40.88;102113.03;2085093;28;47738;-58
2022/03/27 04:30:54;;;;;;;;;42.75;35.25;;;;;15.09;40.75;102121.06;2084881;28;47439;-57
2022/03/27 04:31:54;;;;;;;;;37.50;33.50;;;;;15.08;40.69;102122.84;2102214;28;48365;-58
2022/03/27 04:32:54;;;;;;;;;36.00;32.25;;;;;15.08;40.72;102114.81;2103071;28;47874;-56
2022/03/27 04:33:55;;;;;;;;;37.75;33.75;;;;;15.08;40.95;102120.19;2103297;28;47706;-56
2022/03/27 04:34:56;;;;;;;;;41.20;34.00;;;;;15.07;40.92;102120.22;2100908;28;47951;-57
2022/03/27 04:35:56;;;;;;;;;39.75;34.75;;;;;15.06;40.66;102126.47;2103455;28;47564;-56
2022/03/27 04:36:57;;;;;;;;;37.50;33.00;;;;;15.05;41.07;102125.59;2103404;28;47698;-57
2022/03/27 04:37:57;;;;;;;;;38.00;30.75;;;;;15.05;41.29;102116.69;2103394;28;47203;-58
2022/03/27 04:38:58;;;;;;;;;39.00;33.25;;;;;15.04;40.97;102120.28;2103439;28;47717;-56
2022/03/27 04:40:02;;;;;;;;;39.80;33.80;;;;;15.01;41.05;102122.09;2103101;28;47846;-56